CFG402 EDDF-CYYZ
Flight info
| Callsign | CFG402 |
|---|---|
| Flight time | N/A |
| Altitude | 36000 |
| Route | OBOKA5G/25C OBOKA Z29 TORNU DCT BATAK DCT GALSO Q63 ERING L179 UGBET Q60 OKSAW DCT TEWXI DCT VATRY DCT RESNO/M082F370 NATC LOMSI/N0471F380 N672A ANATI Q812 MAIRE DCT OBTAX Q824 LETAK IMEBA9 |
| Aircraft | A339/H-SADE1E2E3GHIJ3J5M1P2RWXY/LB2D1 |
Departure
| Time | 2026-05-05 12:10 |
|---|---|
| Airport | Frankfurt Main Airport (EDDF) |
Arrival
| Time | N/A |
|---|---|
| Airport | Toronto Pearson International Airport (CYYZ) |
| Time | Latitude | Longitude | Altitude | Speed | Heading |
|---|---|---|---|---|---|
| 2026-05-05 11:33 | 50.04854 | 8.57521 | 366 ft | 0 kts | 203° |
| 2026-05-05 11:58 | 50.04868 | 8.57530 | 367 ft | 4 kts | 202° |
| 2026-05-05 11:59 | 50.04884 | 8.57541 | 367 ft | 4 kts | 198° |
| 2026-05-05 11:59 | 50.04908 | 8.57552 | 364 ft | 4 kts | 175° |
| 2026-05-05 11:59 | 50.04926 | 8.57554 | 364 ft | 4 kts | 122° |
| 2026-05-05 11:59 | 50.04925 | 8.57560 | 363 ft | 4 kts | 115° |
| 2026-05-05 12:00 | 50.04914 | 8.57598 | 362 ft | 4 kts | 115° |
| 2026-05-05 12:00 | 50.04908 | 8.57618 | 366 ft | 0 kts | 115° |
| 2026-05-05 12:02 | 50.04888 | 8.57689 | 367 ft | 14 kts | 113° |
| 2026-05-05 12:03 | 50.04861 | 8.57787 | 367 ft | 9 kts | 113° |
| 2026-05-05 12:03 | 50.04831 | 8.57872 | 370 ft | 9 kts | 129° |
| 2026-05-05 12:03 | 50.04777 | 8.57919 | 368 ft | 9 kts | 158° |
| 2026-05-05 12:03 | 50.04720 | 8.57952 | 368 ft | 9 kts | 160° |
| 2026-05-05 12:04 | 50.04649 | 8.57993 | 369 ft | 12 kts | 160° |
| 2026-05-05 12:04 | 50.04583 | 8.58040 | 373 ft | 9 kts | 140° |
| 2026-05-05 12:04 | 50.04570 | 8.58110 | 372 ft | 5 kts | 94° |
| 2026-05-05 12:04 | 50.04576 | 8.58156 | 373 ft | 5 kts | 74° |
| 2026-05-05 12:05 | 50.04593 | 8.58234 | 375 ft | 10 kts | 70° |
| 2026-05-05 12:05 | 50.04617 | 8.58330 | 376 ft | 10 kts | 69° |
| 2026-05-05 12:05 | 50.04644 | 8.58443 | 379 ft | 12 kts | 70° |
| 2026-05-05 12:05 | 50.04655 | 8.58508 | 376 ft | 4 kts | 89° |
| 2026-05-05 12:06 | 50.04642 | 8.58547 | 377 ft | 4 kts | 123° |
| 2026-05-05 12:06 | 50.04617 | 8.58572 | 375 ft | 4 kts | 153° |
| 2026-05-05 12:06 | 50.04615 | 8.58573 | 375 ft | 0 kts | 154° |
| 2026-05-05 12:06 | 50.04614 | 8.58576 | 378 ft | 1 kts | 147° |
| 2026-05-05 12:07 | 50.04610 | 8.58577 | 378 ft | 1 kts | 155° |
| 2026-05-05 12:07 | 50.04608 | 8.58578 | 378 ft | 0 kts | 156° |
| 2026-05-05 12:08 | 50.04607 | 8.58578 | 378 ft | 1 kts | 156° |
| 2026-05-05 12:08 | 50.04577 | 8.58598 | 378 ft | 7 kts | 159° |
| 2026-05-05 12:09 | 50.04522 | 8.58623 | 376 ft | 8 kts | 173° |
| 2026-05-05 12:09 | 50.04484 | 8.58577 | 376 ft | 7 kts | 240° |
| 2026-05-05 12:09 | 50.04462 | 8.58486 | 376 ft | 17 kts | 250° |
| 2026-05-05 12:09 | 50.04334 | 8.57952 | 371 ft | 90 kts | 249° |
| 2026-05-05 12:10 | 50.04050 | 8.56770 | 366 ft | 148 kts | 249° |
| 2026-05-05 12:10 | 50.03633 | 8.55035 | 447 ft | 187 kts | 248° |
| 2026-05-05 12:10 | 50.03162 | 8.53057 | 805 ft | 206 kts | 249° |
| 2026-05-05 12:10 | 50.02689 | 8.50832 | 1135 ft | 229 kts | 255° |
| 2026-05-05 12:11 | 50.02378 | 8.48298 | 1527 ft | 247 kts | 263° |
| 2026-05-05 12:11 | 50.02291 | 8.45519 | 1793 ft | 267 kts | 271° |
| 2026-05-05 12:11 | 50.02348 | 8.42600 | 2355 ft | 273 kts | 266° |
| 2026-05-05 12:11 | 50.02136 | 8.39658 | 3015 ft | 275 kts | 262° |
| 2026-05-05 12:12 | 50.01893 | 8.36690 | 3663 ft | 277 kts | 262° |
| 2026-05-05 12:12 | 50.01656 | 8.33825 | 4804 ft | 260 kts | 262° |
| 2026-05-05 12:12 | 50.01402 | 8.31078 | 5670 ft | 260 kts | 260° |
| 2026-05-05 12:12 | 50.01246 | 8.28178 | 6156 ft | 276 kts | 272° |
| 2026-05-05 12:13 | 50.01691 | 8.25314 | 7030 ft | 277 kts | 294° |
| 2026-05-05 12:13 | 50.02639 | 8.22689 | 7785 ft | 280 kts | 297° |
| 2026-05-05 12:13 | 50.03521 | 8.19969 | 8432 ft | 282 kts | 294° |
| 2026-05-05 12:13 | 50.04353 | 8.17300 | 9257 ft | 279 kts | 294° |
| 2026-05-05 12:14 | 50.05188 | 8.14504 | 9755 ft | 290 kts | 293° |
| 2026-05-05 12:14 | 50.06121 | 8.11706 | 10337 ft | 293 kts | 301° |
| 2026-05-05 12:14 | 50.07381 | 8.09154 | 10926 ft | 296 kts | 312° |
| 2026-05-05 12:14 | 50.08878 | 8.06992 | 11431 ft | 300 kts | 316° |
| 2026-05-05 12:15 | 50.10266 | 8.04494 | 11729 ft | 311 kts | 305° |
| 2026-05-05 12:15 | 50.11545 | 8.01677 | 11902 ft | 327 kts | 303° |
| 2026-05-05 12:15 | 50.12895 | 7.98701 | 12065 ft | 344 kts | 304° |
| 2026-05-05 12:15 | 50.14350 | 7.95661 | 12399 ft | 354 kts | 306° |
| 2026-05-05 12:16 | 50.15871 | 7.92615 | 12993 ft | 357 kts | 307° |
| 2026-05-05 12:16 | 50.17422 | 7.89569 | 13523 ft | 361 kts | 307° |
| 2026-05-05 12:16 | 50.18983 | 7.86524 | 14039 ft | 363 kts | 307° |
| 2026-05-05 12:16 | 50.20566 | 7.83435 | 14532 ft | 366 kts | 307° |
| 2026-05-05 12:17 | 50.22162 | 7.80318 | 15058 ft | 368 kts | 307° |
| 2026-05-05 12:17 | 50.23769 | 7.77183 | 15569 ft | 371 kts | 308° |
| 2026-05-05 12:17 | 50.25626 | 7.74346 | 16036 ft | 376 kts | 320° |
| 2026-05-05 12:17 | 50.27844 | 7.72137 | 16461 ft | 381 kts | 332° |
| 2026-05-05 12:18 | 50.30284 | 7.70487 | 16873 ft | 384 kts | 336° |
| 2026-05-05 12:18 | 50.32737 | 7.68851 | 17287 ft | 386 kts | 335° |
| 2026-05-05 12:18 | 50.35195 | 7.67180 | 17693 ft | 389 kts | 335° |
| 2026-05-05 12:18 | 50.37713 | 7.65454 | 18127 ft | 391 kts | 335° |
| 2026-05-05 12:19 | 50.38851 | 7.64671 | 18305 ft | 392 kts | 335° |
| 2026-05-05 12:19 | 50.41356 | 7.62947 | 18691 ft | 394 kts | 335° |
| 2026-05-05 12:19 | 50.43873 | 7.61214 | 19058 ft | 397 kts | 335° |
| 2026-05-05 12:19 | 50.46407 | 7.59467 | 19436 ft | 399 kts | 335° |
| 2026-05-05 12:20 | 50.48955 | 7.57709 | 19797 ft | 401 kts | 335° |
| 2026-05-05 12:20 | 50.51524 | 7.55936 | 20165 ft | 404 kts | 335° |
| 2026-05-05 12:20 | 50.54100 | 7.54147 | 20547 ft | 406 kts | 334° |
| 2026-05-05 12:20 | 50.56609 | 7.52100 | 20917 ft | 407 kts | 328° |
| 2026-05-05 12:21 | 50.59008 | 7.49714 | 21281 ft | 409 kts | 324° |
| 2026-05-05 12:21 | 50.61390 | 7.47236 | 21644 ft | 412 kts | 325° |
| 2026-05-05 12:21 | 50.63820 | 7.44749 | 22034 ft | 415 kts | 325° |
| 2026-05-05 12:21 | 50.66254 | 7.42269 | 22398 ft | 418 kts | 325° |
| 2026-05-05 12:22 | 50.68680 | 7.39790 | 22776 ft | 420 kts | 325° |
| 2026-05-05 12:22 | 50.71132 | 7.37256 | 23151 ft | 422 kts | 323° |
| 2026-05-05 12:22 | 50.73388 | 7.34294 | 23476 ft | 423 kts | 312° |
| 2026-05-05 12:22 | 50.75291 | 7.30766 | 23841 ft | 420 kts | 302° |
| 2026-05-05 12:23 | 50.76793 | 7.26839 | 24211 ft | 418 kts | 293° |
| 2026-05-05 12:23 | 50.78098 | 7.22731 | 24542 ft | 419 kts | 294° |
| 2026-05-05 12:23 | 50.79432 | 7.18613 | 24911 ft | 421 kts | 294° |
| 2026-05-05 12:23 | 50.80773 | 7.14498 | 25271 ft | 422 kts | 294° |
| 2026-05-05 12:24 | 50.82118 | 7.10369 | 25603 ft | 423 kts | 294° |
| 2026-05-05 12:24 | 50.83464 | 7.06224 | 25971 ft | 425 kts | 294° |
| 2026-05-05 12:24 | 50.84812 | 7.02059 | 26281 ft | 427 kts | 294° |
| 2026-05-05 12:24 | 50.86167 | 6.97865 | 26614 ft | 428 kts | 294° |
| 2026-05-05 12:25 | 50.87520 | 6.93667 | 26964 ft | 429 kts | 293° |
| 2026-05-05 12:25 | 50.88879 | 6.89445 | 27315 ft | 431 kts | 293° |
| 2026-05-05 12:25 | 50.90241 | 6.85208 | 27632 ft | 432 kts | 293° |
| 2026-05-05 12:25 | 50.91585 | 6.81016 | 27984 ft | 433 kts | 293° |
| 2026-05-05 12:26 | 50.92968 | 6.76698 | 28296 ft | 435 kts | 293° |
| 2026-05-05 12:26 | 50.94320 | 6.72468 | 28605 ft | 436 kts | 293° |
| 2026-05-05 12:26 | 50.95692 | 6.68167 | 28910 ft | 437 kts | 293° |
| 2026-05-05 12:26 | 50.97066 | 6.63854 | 29203 ft | 439 kts | 293° |
| 2026-05-05 12:27 | 50.98439 | 6.59535 | 29483 ft | 441 kts | 293° |
| 2026-05-05 12:27 | 50.99828 | 6.55156 | 29636 ft | 446 kts | 293° |
| 2026-05-05 12:27 | 51.01223 | 6.50756 | 29954 ft | 447 kts | 293° |
| 2026-05-05 12:27 | 51.02617 | 6.46353 | 30219 ft | 448 kts | 293° |
| 2026-05-05 12:28 | 51.04017 | 6.41923 | 30488 ft | 449 kts | 293° |
| 2026-05-05 12:28 | 51.05418 | 6.37479 | 30740 ft | 450 kts | 292° |
| 2026-05-05 12:28 | 51.06823 | 6.33017 | 31001 ft | 452 kts | 292° |
| 2026-05-05 12:28 | 51.08225 | 6.28551 | 31267 ft | 453 kts | 292° |
| 2026-05-05 12:29 | 51.09632 | 6.24064 | 31546 ft | 454 kts | 292° |
| 2026-05-05 12:29 | 51.11042 | 6.19559 | 31786 ft | 455 kts | 292° |
| 2026-05-05 12:29 | 51.12455 | 6.15033 | 32016 ft | 457 kts | 292° |
| 2026-05-05 12:29 | 51.13735 | 6.10394 | 32098 ft | 459 kts | 286° |
| 2026-05-05 12:30 | 51.14735 | 6.05583 | 32360 ft | 456 kts | 281° |
| 2026-05-05 12:30 | 51.15518 | 6.00697 | 32568 ft | 456 kts | 279° |
| 2026-05-05 12:30 | 51.16306 | 5.95798 | 32756 ft | 457 kts | 280° |
| 2026-05-05 12:30 | 51.17107 | 5.90893 | 32931 ft | 458 kts | 280° |
| 2026-05-05 12:31 | 51.18000 | 5.86019 | 33070 ft | 462 kts | 285° |
| 2026-05-05 12:31 | 51.19240 | 5.81273 | 33246 ft | 466 kts | 291° |
| 2026-05-05 12:31 | 51.20815 | 5.76737 | 33473 ft | 469 kts | 297° |
| 2026-05-05 12:31 | 51.22522 | 5.72305 | 33635 ft | 468 kts | 296° |
| 2026-05-05 12:32 | 51.25868 | 5.63431 | 33854 ft | 471 kts | 296° |
| 2026-05-05 12:32 | 51.27546 | 5.58954 | 33995 ft | 470 kts | 296° |
| 2026-05-05 12:32 | 51.29225 | 5.54470 | 34120 ft | 470 kts | 296° |
| 2026-05-05 12:33 | 51.30922 | 5.49935 | 34241 ft | 470 kts | 296° |
| 2026-05-05 12:33 | 51.32575 | 5.45509 | 34358 ft | 470 kts | 296° |
| 2026-05-05 12:33 | 51.34254 | 5.41009 | 34478 ft | 470 kts | 296° |
| 2026-05-05 12:33 | 51.35926 | 5.36519 | 34587 ft | 470 kts | 296° |
| 2026-05-05 12:34 | 51.37594 | 5.32031 | 34704 ft | 469 kts | 296° |
| 2026-05-05 12:34 | 51.39262 | 5.27536 | 34818 ft | 469 kts | 296° |
| 2026-05-05 12:34 | 51.42594 | 5.18530 | 35009 ft | 470 kts | 296° |
| 2026-05-05 12:35 | 51.44262 | 5.14012 | 35114 ft | 470 kts | 296° |
| 2026-05-05 12:35 | 51.45924 | 5.09503 | 35228 ft | 470 kts | 296° |
| 2026-05-05 12:35 | 51.47583 | 5.04996 | 35432 ft | 468 kts | 296° |
| 2026-05-05 12:35 | 51.49230 | 5.00510 | 35587 ft | 466 kts | 296° |
| 2026-05-05 12:36 | 51.52516 | 4.91532 | 35778 ft | 467 kts | 296° |
| 2026-05-05 12:36 | 51.55632 | 4.82439 | 35911 ft | 463 kts | 290° |
| 2026-05-05 12:37 | 51.57698 | 4.72815 | 35909 ft | 459 kts | 280° |
| 2026-05-05 12:37 | 51.58841 | 4.62769 | 35915 ft | 456 kts | 276° |
| 2026-05-05 12:38 | 51.59920 | 4.52710 | 35914 ft | 457 kts | 276° |
| 2026-05-05 12:38 | 51.60979 | 4.42642 | 35912 ft | 456 kts | 276° |
| 2026-05-05 12:39 | 51.62020 | 4.32565 | 35912 ft | 456 kts | 276° |
| 2026-05-05 12:39 | 51.63115 | 4.22503 | 35914 ft | 457 kts | 278° |
| 2026-05-05 12:40 | 51.64197 | 4.12494 | 35914 ft | 457 kts | 277° |
| 2026-05-05 12:40 | 51.65220 | 4.02337 | 35923 ft | 456 kts | 276° |
| 2026-05-05 12:41 | 51.66205 | 3.92315 | 35927 ft | 456 kts | 276° |
| 2026-05-05 12:41 | 51.67186 | 3.82199 | 35933 ft | 458 kts | 276° |
| 2026-05-05 12:42 | 51.68170 | 3.72025 | 35935 ft | 460 kts | 276° |
| 2026-05-05 12:42 | 51.69147 | 3.61854 | 35945 ft | 459 kts | 276° |
| 2026-05-05 12:43 | 51.70118 | 3.51668 | 35943 ft | 459 kts | 276° |
| 2026-05-05 12:43 | 51.71080 | 3.41490 | 35948 ft | 459 kts | 276° |
| 2026-05-05 12:44 | 51.72031 | 3.31299 | 35946 ft | 459 kts | 277° |
| 2026-05-05 12:44 | 51.72780 | 3.22826 | 35946 ft | 458 kts | 274° |
| 2026-05-05 12:45 | 51.72867 | 3.12590 | 35951 ft | 456 kts | 264° |
| 2026-05-05 12:45 | 51.71903 | 3.00834 | 35950 ft | 455 kts | 260° |
| 2026-05-05 12:46 | 51.71176 | 2.92435 | 35946 ft | 455 kts | 260° |
| 2026-05-05 12:46 | 51.70294 | 2.82356 | 35954 ft | 454 kts | 261° |
| 2026-05-05 12:47 | 51.69398 | 2.72276 | 35951 ft | 454 kts | 260° |
| 2026-05-05 12:47 | 51.68491 | 2.62186 | 35952 ft | 455 kts | 260° |
| 2026-05-05 12:48 | 51.67584 | 2.52122 | 35956 ft | 454 kts | 260° |
| 2026-05-05 12:48 | 51.66665 | 2.42045 | 35958 ft | 454 kts | 260° |
| 2026-05-05 12:49 | 51.65734 | 2.31968 | 35958 ft | 455 kts | 260° |
| 2026-05-05 12:49 | 51.64797 | 2.21899 | 35958 ft | 455 kts | 260° |
| 2026-05-05 12:50 | 51.63850 | 2.11825 | 35960 ft | 455 kts | 260° |
| 2026-05-05 12:50 | 51.62911 | 2.01761 | 35960 ft | 455 kts | 260° |
| 2026-05-05 12:51 | 51.61978 | 1.91693 | 35976 ft | 455 kts | 260° |
| 2026-05-05 12:51 | 51.61039 | 1.81694 | 35964 ft | 455 kts | 260° |
| 2026-05-05 12:52 | 51.60083 | 1.71633 | 35968 ft | 455 kts | 260° |
| 2026-05-05 12:52 | 51.59287 | 1.61544 | 35972 ft | 456 kts | 265° |
| 2026-05-05 12:53 | 51.59498 | 1.51328 | 35970 ft | 458 kts | 272° |
| 2026-05-05 12:53 | 51.59958 | 1.41101 | 35971 ft | 459 kts | 272° |
| 2026-05-05 12:54 | 51.60598 | 1.25726 | 35971 ft | 459 kts | 272° |
| 2026-05-05 12:55 | 51.61013 | 1.15482 | 35967 ft | 459 kts | 271° |
| 2026-05-05 12:55 | 51.61419 | 1.05239 | 35968 ft | 459 kts | 271° |
| 2026-05-05 12:56 | 51.61818 | 0.94976 | 35973 ft | 459 kts | 271° |
| 2026-05-05 12:56 | 51.62207 | 0.84708 | 35968 ft | 460 kts | 271° |
| 2026-05-05 12:57 | 51.62589 | 0.74431 | 35968 ft | 460 kts | 271° |
| 2026-05-05 12:57 | 51.62958 | 0.64227 | 35959 ft | 460 kts | 271° |
| 2026-05-05 12:58 | 51.63321 | 0.53956 | 35959 ft | 460 kts | 271° |
| 2026-05-05 12:58 | 51.63675 | 0.43668 | 35960 ft | 462 kts | 271° |
| 2026-05-05 12:59 | 51.64022 | 0.33310 | 35965 ft | 464 kts | 271° |
| 2026-05-05 12:59 | 51.64361 | 0.22952 | 35966 ft | 463 kts | 271° |
| 2026-05-05 13:00 | 51.63811 | 0.07561 | 35970 ft | 460 kts | 258° |
| 2026-05-05 13:01 | 51.61976 | -0.12878 | 35987 ft | 464 kts | 268° |
| 2026-05-05 13:01 | 51.62392 | -0.23236 | 35994 ft | 465 kts | 274° |
| 2026-05-05 13:02 | 51.63046 | -0.33593 | 35990 ft | 465 kts | 274° |
| 2026-05-05 13:02 | 51.63668 | -0.43962 | 35967 ft | 465 kts | 274° |
| 2026-05-05 13:03 | 51.64277 | -0.54267 | 35966 ft | 465 kts | 274° |
| 2026-05-05 13:03 | 51.64881 | -0.64641 | 35967 ft | 465 kts | 274° |
| 2026-05-05 13:04 | 51.65477 | -0.75004 | 35963 ft | 465 kts | 274° |
| 2026-05-05 13:04 | 51.66063 | -0.85375 | 35972 ft | 465 kts | 273° |
| 2026-05-05 13:05 | 51.66640 | -0.95746 | 35964 ft | 465 kts | 273° |
| 2026-05-05 13:05 | 51.67210 | -1.06159 | 35964 ft | 467 kts | 273° |
| 2026-05-05 13:06 | 51.67770 | -1.16566 | 35964 ft | 466 kts | 273° |
| 2026-05-05 13:06 | 51.68321 | -1.26984 | 35967 ft | 466 kts | 273° |
| 2026-05-05 13:07 | 51.68863 | -1.37392 | 35965 ft | 467 kts | 273° |
| 2026-05-05 13:07 | 51.69396 | -1.47812 | 35966 ft | 466 kts | 273° |
| 2026-05-05 13:08 | 51.69919 | -1.58212 | 35968 ft | 466 kts | 273° |
| 2026-05-05 13:08 | 51.71018 | -1.68507 | 35991 ft | 469 kts | 284° |
| 2026-05-05 13:09 | 51.73432 | -1.78317 | 35991 ft | 471 kts | 296° |
| 2026-05-05 13:09 | 51.76369 | -1.87683 | 35993 ft | 471 kts | 295° |
| 2026-05-05 13:10 | 51.79296 | -1.97174 | 36004 ft | 471 kts | 294° |
| 2026-05-05 13:10 | 51.81967 | -2.06774 | 35995 ft | 465 kts | 288° |
| 2026-05-05 13:11 | 51.84218 | -2.16622 | 35993 ft | 467 kts | 289° |
| 2026-05-05 13:11 | 51.86501 | -2.26468 | 35994 ft | 468 kts | 289° |
| 2026-05-05 13:12 | 51.88768 | -2.36300 | 35997 ft | 466 kts | 289° |
| 2026-05-05 13:12 | 51.91006 | -2.46091 | 36002 ft | 467 kts | 289° |
| 2026-05-05 13:13 | 51.93247 | -2.55945 | 36003 ft | 468 kts | 289° |
| 2026-05-05 13:13 | 51.95485 | -2.65817 | 36006 ft | 467 kts | 289° |
| 2026-05-05 13:14 | 51.97721 | -2.75728 | 36009 ft | 466 kts | 289° |
| 2026-05-05 13:14 | 51.99936 | -2.85600 | 36006 ft | 467 kts | 289° |
| 2026-05-05 13:15 | 52.02137 | -2.95460 | 36004 ft | 466 kts | 289° |
| 2026-05-05 13:15 | 52.04343 | -3.05401 | 36014 ft | 468 kts | 289° |
| 2026-05-05 13:16 | 52.06555 | -3.15394 | 36018 ft | 469 kts | 289° |
| 2026-05-05 13:16 | 52.08751 | -3.25364 | 36016 ft | 468 kts | 289° |
| 2026-05-05 13:17 | 52.10922 | -3.35271 | 36017 ft | 467 kts | 289° |
| 2026-05-05 13:17 | 52.13096 | -3.45242 | 36014 ft | 469 kts | 290° |
| 2026-05-05 13:18 | 52.15269 | -3.55268 | 36022 ft | 470 kts | 290° |
| 2026-05-05 13:18 | 52.17435 | -3.65296 | 36023 ft | 469 kts | 290° |
| 2026-05-05 13:19 | 52.19589 | -3.75323 | 36026 ft | 469 kts | 290° |
| 2026-05-05 13:19 | 52.21737 | -3.85366 | 36025 ft | 469 kts | 289° |
| 2026-05-05 13:20 | 52.23468 | -3.93495 | 36030 ft | 468 kts | 289° |
| 2026-05-05 13:20 | 52.25591 | -4.03508 | 36034 ft | 467 kts | 289° |
| 2026-05-05 13:21 | 52.27701 | -4.13521 | 36033 ft | 465 kts | 289° |
| 2026-05-05 13:21 | 52.29802 | -4.23532 | 36037 ft | 465 kts | 289° |
| 2026-05-05 13:22 | 52.31878 | -4.33471 | 36044 ft | 467 kts | 289° |
| 2026-05-05 13:22 | 52.33965 | -4.43515 | 36048 ft | 466 kts | 289° |
| 2026-05-05 13:23 | 52.36035 | -4.53528 | 36046 ft | 462 kts | 289° |
| 2026-05-05 13:23 | 52.38083 | -4.63490 | 36048 ft | 463 kts | 289° |
| 2026-05-05 13:24 | 52.40120 | -4.73445 | 36054 ft | 461 kts | 288° |
| 2026-05-05 13:24 | 52.42155 | -4.83434 | 36058 ft | 462 kts | 288° |
| 2026-05-05 13:25 | 52.44185 | -4.93444 | 36057 ft | 461 kts | 288° |
| 2026-05-05 13:25 | 52.46189 | -5.03387 | 36059 ft | 459 kts | 288° |
| 2026-05-05 13:26 | 52.48176 | -5.13288 | 36068 ft | 456 kts | 288° |
| 2026-05-05 13:26 | 52.50155 | -5.23209 | 36064 ft | 458 kts | 288° |
| 2026-05-05 13:27 | 52.52130 | -5.33160 | 36064 ft | 461 kts | 288° |
| 2026-05-05 13:27 | 52.54104 | -5.43142 | 36068 ft | 456 kts | 288° |
| 2026-05-05 13:28 | 52.56306 | -5.52837 | 36072 ft | 455 kts | 296° |
| 2026-05-05 13:28 | 52.59215 | -5.62102 | 36069 ft | 458 kts | 297° |
| 2026-05-05 13:29 | 52.62133 | -5.71449 | 36069 ft | 457 kts | 296° |
| 2026-05-05 13:29 | 52.65043 | -5.80783 | 36069 ft | 460 kts | 296° |
| 2026-05-05 13:30 | 52.67946 | -5.90128 | 36070 ft | 457 kts | 296° |
| 2026-05-05 13:30 | 52.70842 | -5.99497 | 36069 ft | 460 kts | 296° |
| 2026-05-05 13:31 | 52.73736 | -6.08898 | 36068 ft | 459 kts | 296° |
| 2026-05-05 13:31 | 52.76598 | -6.18249 | 36069 ft | 460 kts | 296° |
| 2026-05-05 13:32 | 52.79471 | -6.27677 | 36067 ft | 459 kts | 296° |
| 2026-05-05 13:32 | 52.82337 | -6.37116 | 36068 ft | 459 kts | 296° |
| 2026-05-05 13:33 | 52.85193 | -6.46557 | 36067 ft | 457 kts | 295° |
| 2026-05-05 13:33 | 52.88029 | -6.55973 | 36065 ft | 458 kts | 295° |
| 2026-05-05 13:34 | 52.90865 | -6.65427 | 36063 ft | 457 kts | 295° |
| 2026-05-05 13:34 | 52.93213 | -6.73280 | 36065 ft | 457 kts | 295° |
| 2026-05-05 13:35 | 52.96031 | -6.82738 | 36067 ft | 457 kts | 295° |
| 2026-05-05 13:35 | 52.98837 | -6.92195 | 36070 ft | 457 kts | 295° |
| 2026-05-05 13:36 | 53.01639 | -7.01677 | 36070 ft | 457 kts | 295° |
| 2026-05-05 13:36 | 53.04433 | -7.11170 | 36080 ft | 457 kts | 295° |
| 2026-05-05 13:37 | 53.07214 | -7.20655 | 36069 ft | 456 kts | 295° |
| 2026-05-05 13:37 | 53.09986 | -7.30149 | 36070 ft | 456 kts | 295° |
| 2026-05-05 13:38 | 53.12750 | -7.39650 | 36075 ft | 456 kts | 295° |
| 2026-05-05 13:38 | 53.15493 | -7.49119 | 36075 ft | 456 kts | 295° |
| 2026-05-05 13:39 | 53.18241 | -7.58645 | 36081 ft | 456 kts | 295° |
| 2026-05-05 13:39 | 53.20980 | -7.68177 | 36081 ft | 456 kts | 295° |
| 2026-05-05 13:40 | 53.23712 | -7.77726 | 36079 ft | 456 kts | 295° |
| 2026-05-05 13:40 | 53.26438 | -7.87287 | 36082 ft | 456 kts | 295° |
| 2026-05-05 13:41 | 53.29156 | -7.96865 | 36082 ft | 456 kts | 295° |
| 2026-05-05 13:41 | 53.31863 | -8.06440 | 36089 ft | 456 kts | 295° |
| 2026-05-05 13:42 | 53.34573 | -8.16067 | 36089 ft | 456 kts | 294° |
| 2026-05-05 13:42 | 53.37249 | -8.25613 | 36085 ft | 456 kts | 294° |
| 2026-05-05 13:43 | 53.39951 | -8.35290 | 36091 ft | 456 kts | 294° |
| 2026-05-05 13:43 | 53.42612 | -8.44859 | 36091 ft | 456 kts | 294° |
| 2026-05-05 13:44 | 53.45282 | -8.54500 | 36096 ft | 455 kts | 294° |
| 2026-05-05 13:44 | 53.47939 | -8.64135 | 36097 ft | 455 kts | 294° |
| 2026-05-05 13:45 | 53.50589 | -8.73787 | 36102 ft | 455 kts | 294° |
| 2026-05-05 13:45 | 53.53231 | -8.83448 | 36101 ft | 455 kts | 294° |
| 2026-05-05 13:46 | 53.55864 | -8.93115 | 36107 ft | 455 kts | 294° |
| 2026-05-05 13:46 | 53.58490 | -9.02802 | 36108 ft | 455 kts | 294° |
| 2026-05-05 13:47 | 53.61110 | -9.12504 | 36110 ft | 455 kts | 294° |
| 2026-05-05 13:47 | 53.63719 | -9.22208 | 36117 ft | 455 kts | 294° |
| 2026-05-05 13:48 | 53.66318 | -9.31914 | 36097 ft | 453 kts | 293° |
| 2026-05-05 13:48 | 53.68910 | -9.41638 | 36110 ft | 455 kts | 293° |
| 2026-05-05 13:49 | 53.71477 | -9.51307 | 36127 ft | 454 kts | 293° |
| 2026-05-05 13:49 | 53.74053 | -9.61052 | 36128 ft | 454 kts | 293° |
| 2026-05-05 13:50 | 53.76617 | -9.70795 | 36141 ft | 454 kts | 293° |
| 2026-05-05 13:50 | 53.79178 | -9.80564 | 36141 ft | 454 kts | 293° |
| 2026-05-05 13:51 | 53.81729 | -9.90343 | 36148 ft | 454 kts | 293° |
| 2026-05-05 13:51 | 53.84269 | -10.00122 | 36126 ft | 453 kts | 293° |
| 2026-05-05 13:52 | 53.86787 | -10.09859 | 36131 ft | 452 kts | 293° |
| 2026-05-05 13:52 | 53.89303 | -10.19626 | 36133 ft | 452 kts | 293° |
| 2026-05-05 13:53 | 53.91808 | -10.29396 | 36137 ft | 452 kts | 293° |
| 2026-05-05 13:53 | 53.94291 | -10.39121 | 36145 ft | 452 kts | 292° |
| 2026-05-05 13:54 | 53.96779 | -10.48905 | 36169 ft | 451 kts | 292° |
| 2026-05-05 13:54 | 53.99260 | -10.58710 | 36169 ft | 451 kts | 292° |
| 2026-05-05 13:55 | 54.01725 | -10.68493 | 36170 ft | 450 kts | 292° |
| 2026-05-05 13:55 | 54.04181 | -10.78281 | 36153 ft | 449 kts | 292° |
| 2026-05-05 13:56 | 54.06627 | -10.88073 | 36158 ft | 450 kts | 292° |
| 2026-05-05 13:56 | 54.09062 | -10.97867 | 36163 ft | 449 kts | 292° |
| 2026-05-05 13:57 | 54.11495 | -11.07695 | 36162 ft | 450 kts | 292° |
| 2026-05-05 13:57 | 54.13917 | -11.17523 | 36168 ft | 449 kts | 292° |
| 2026-05-05 13:58 | 54.16331 | -11.27361 | 36168 ft | 449 kts | 292° |
| 2026-05-05 13:58 | 54.18736 | -11.37210 | 36168 ft | 449 kts | 292° |
| 2026-05-05 13:59 | 54.22324 | -11.51980 | 36168 ft | 449 kts | 292° |
| 2026-05-05 14:00 | 54.25490 | -11.65100 | 36173 ft | 448 kts | 291° |
| 2026-05-05 14:00 | 54.28245 | -11.76581 | 36176 ft | 449 kts | 291° |
| 2026-05-05 14:01 | 54.30603 | -11.86452 | 36176 ft | 448 kts | 291° |
| 2026-05-05 14:01 | 54.32959 | -11.96366 | 36177 ft | 448 kts | 291° |
| 2026-05-05 14:02 | 54.35304 | -12.06276 | 36178 ft | 448 kts | 291° |
| 2026-05-05 14:02 | 54.37639 | -12.16192 | 36183 ft | 448 kts | 291° |
| 2026-05-05 14:03 | 54.39964 | -12.26108 | 36185 ft | 448 kts | 291° |
| 2026-05-05 14:03 | 54.42280 | -12.36036 | 36182 ft | 448 kts | 291° |
| 2026-05-05 14:04 | 54.44588 | -12.45970 | 36180 ft | 447 kts | 291° |
| 2026-05-05 14:04 | 54.46886 | -12.55913 | 36185 ft | 448 kts | 291° |
| 2026-05-05 14:05 | 54.49176 | -12.65865 | 36182 ft | 448 kts | 290° |
| 2026-05-05 14:05 | 54.51459 | -12.75834 | 36189 ft | 448 kts | 290° |
| 2026-05-05 14:06 | 54.53718 | -12.85740 | 36187 ft | 447 kts | 290° |
| 2026-05-05 14:06 | 54.55984 | -12.95728 | 36189 ft | 448 kts | 290° |
| 2026-05-05 14:07 | 54.58242 | -13.05726 | 36194 ft | 448 kts | 290° |
| 2026-05-05 14:07 | 54.60491 | -13.15736 | 36194 ft | 448 kts | 290° |
| 2026-05-05 14:08 | 54.62730 | -13.25745 | 36198 ft | 447 kts | 290° |
| 2026-05-05 14:08 | 54.64963 | -13.35780 | 36196 ft | 447 kts | 290° |
| 2026-05-05 14:09 | 54.67188 | -13.45822 | 36198 ft | 448 kts | 290° |
| 2026-05-05 14:09 | 54.69391 | -13.55817 | 36198 ft | 448 kts | 290° |
| 2026-05-05 14:10 | 54.71599 | -13.65881 | 36200 ft | 448 kts | 290° |
| 2026-05-05 14:10 | 54.73799 | -13.75958 | 36200 ft | 448 kts | 290° |
| 2026-05-05 14:11 | 54.75985 | -13.86019 | 36203 ft | 448 kts | 290° |
| 2026-05-05 14:11 | 54.78169 | -13.96123 | 36203 ft | 448 kts | 289° |
| 2026-05-05 14:12 | 54.80345 | -14.06238 | 36205 ft | 448 kts | 289° |
| 2026-05-05 14:12 | 54.82513 | -14.16365 | 36207 ft | 448 kts | 289° |
| 2026-05-05 14:13 | 54.84672 | -14.26502 | 36204 ft | 448 kts | 289° |
| 2026-05-05 14:13 | 54.86822 | -14.36647 | 36206 ft | 448 kts | 289° |
| 2026-05-05 14:14 | 54.88966 | -14.46813 | 36206 ft | 448 kts | 289° |
| 2026-05-05 14:14 | 54.91102 | -14.56989 | 36225 ft | 448 kts | 289° |
| 2026-05-05 14:15 | 54.93231 | -14.67158 | 36211 ft | 448 kts | 289° |
| 2026-05-05 14:15 | 54.95357 | -14.77350 | 36214 ft | 448 kts | 289° |
| 2026-05-05 14:16 | 54.97462 | -14.87485 | 36213 ft | 448 kts | 289° |
| 2026-05-05 14:16 | 54.99572 | -14.97706 | 36213 ft | 448 kts | 289° |
| 2026-05-05 14:17 | 55.01687 | -15.07930 | 36217 ft | 449 kts | 290° |
| 2026-05-05 14:17 | 55.04007 | -15.18035 | 36217 ft | 449 kts | 291° |
| 2026-05-05 14:18 | 55.06313 | -15.28149 | 36219 ft | 449 kts | 291° |
| 2026-05-05 14:18 | 55.08580 | -15.38293 | 36220 ft | 449 kts | 290° |
| 2026-05-05 14:19 | 55.10827 | -15.48447 | 36219 ft | 449 kts | 290° |
| 2026-05-05 14:19 | 55.13061 | -15.58599 | 36218 ft | 449 kts | 290° |
| 2026-05-05 14:20 | 55.15296 | -15.68796 | 36220 ft | 449 kts | 290° |
| 2026-05-05 14:20 | 55.17518 | -15.78988 | 36219 ft | 449 kts | 290° |
| 2026-05-05 14:21 | 55.19737 | -15.89213 | 36224 ft | 449 kts | 290° |
| 2026-05-05 14:21 | 55.21944 | -15.99437 | 36224 ft | 449 kts | 290° |
| 2026-05-05 14:22 | 55.24143 | -16.09674 | 36237 ft | 449 kts | 290° |
| 2026-05-05 14:22 | 55.26320 | -16.19863 | 36217 ft | 449 kts | 290° |
| 2026-05-05 14:23 | 55.28506 | -16.30144 | 36226 ft | 450 kts | 290° |
| 2026-05-05 14:23 | 55.30681 | -16.40422 | 36227 ft | 450 kts | 290° |
| 2026-05-05 14:24 | 55.32848 | -16.50713 | 36231 ft | 450 kts | 290° |
| 2026-05-05 14:24 | 55.35009 | -16.61029 | 36233 ft | 450 kts | 290° |
| 2026-05-05 14:25 | 55.37160 | -16.71353 | 36233 ft | 450 kts | 290° |
| 2026-05-05 14:25 | 55.39303 | -16.81689 | 36234 ft | 450 kts | 290° |
| 2026-05-05 14:26 | 55.41435 | -16.92035 | 36232 ft | 451 kts | 290° |
| 2026-05-05 14:26 | 55.43566 | -17.02426 | 36232 ft | 451 kts | 290° |
| 2026-05-05 14:27 | 55.45688 | -17.12821 | 36238 ft | 451 kts | 290° |
| 2026-05-05 14:27 | 55.47801 | -17.23223 | 36238 ft | 451 kts | 290° |
| 2026-05-05 14:28 | 55.49905 | -17.33643 | 36235 ft | 451 kts | 290° |
| 2026-05-05 14:28 | 55.51986 | -17.43998 | 36238 ft | 451 kts | 290° |
| 2026-05-05 14:29 | 55.54072 | -17.54439 | 36241 ft | 451 kts | 290° |
| 2026-05-05 14:29 | 55.56151 | -17.64895 | 36241 ft | 451 kts | 289° |
| 2026-05-05 14:30 | 55.57872 | -17.73597 | 36243 ft | 451 kts | 290° |
| 2026-05-05 14:30 | 55.59945 | -17.84130 | 36243 ft | 451 kts | 289° |
| 2026-05-05 14:31 | 55.61985 | -17.94547 | 36245 ft | 451 kts | 289° |
| 2026-05-05 14:31 | 55.64030 | -18.05046 | 36243 ft | 451 kts | 289° |